Time;durP1;ratioP1;P1;durP2;ratioP2;P2;SDS_P1;SDS_P2;PMS_P1;PMS_P2;Temp;Humidity;BMP_temperature;BMP_pressure;BME280_temperature;BME280_humidity;BME280_pressure;Samples;Min_cycle;Max_cycle;Signal;HPM_P1;HPM_P2
2022/04/24 00:01:14;;;;;;;7.03;4.25;;;15.20;45.10;;;;;;5053236;28;20042;-63
2022/04/24 00:03:39;;;;;;;7.10;4.05;;;15.30;45.20;;;;;;5054726;28;20450;-63
2022/04/24 00:06:05;;;;;;;6.82;3.95;;;15.20;45.20;;;;;;5052700;28;20033;-63
2022/04/24 00:08:31;;;;;;;6.90;4.07;;;15.20;45.30;;;;;;5049658;28;20036;-63
2022/04/24 00:10:56;;;;;;;7.55;4.20;;;15.20;45.40;;;;;;5042842;28;20039;-63
2022/04/24 00:13:23;;;;;;;7.35;4.70;;;15.10;45.40;;;;;;5054461;28;20025;-63
2022/04/24 00:15:50;;;;;;;7.75;4.28;;;15.10;45.50;;;;;;5046777;28;20029;-63
2022/04/24 00:18:16;;;;;;;7.10;4.28;;;15.10;45.70;;;;;;5050908;28;20041;-63
2022/04/24 00:20:42;;;;;;;7.32;4.68;;;15.00;45.70;;;;;;5040402;28;20085;-63
2022/04/24 00:23:09;;;;;;;7.65;4.85;;;15.00;45.80;;;;;;5054748;28;20025;-63
2022/04/24 00:25:34;;;;;;;7.88;5.05;;;14.90;45.90;;;;;;5046460;28;20017;-63
2022/04/24 00:28:02;;;;;;;8.52;4.68;;;14.90;46.00;;;;;;5049007;28;20029;-63
2022/04/24 00:30:28;;;;;;;7.50;4.85;;;14.90;46.20;;;;;;5035212;28;20036;-63
2022/04/24 00:32:54;;;;;;;8.80;4.93;;;14.90;46.20;;;;;;5035832;28;20570;-63
2022/04/24 00:35:20;;;;;;;7.60;4.63;;;14.90;46.20;;;;;;5053087;28;20083;-63
2022/04/24 00:37:45;;;;;;;7.18;4.43;;;14.90;46.30;;;;;;5047179;28;20171;-63
2022/04/24 00:40:11;;;;;;;8.25;5.13;;;14.80;46.30;;;;;;5040061;28;20477;-63
2022/04/24 00:42:37;;;;;;;7.93;4.80;;;14.80;46.40;;;;;;5052895;28;20519;-63
2022/04/24 00:45:03;;;;;;;8.60;5.47;;;14.80;46.40;;;;;;5049817;28;20426;-63
2022/04/24 00:47:49;;;;;;;7.80;5.30;;;14.80;46.40;;;;;;5054683;28;20033;-63
2022/04/24 00:50:14;;;;;;;9.13;4.85;;;14.70;46.50;;;;;;5039039;28;20420;-63
2022/04/24 00:52:40;;;;;;;7.90;5.25;;;14.70;46.60;;;;;;5055998;28;20036;-63
2022/04/24 00:55:07;;;;;;;8.45;5.45;;;14.70;46.80;;;;;;5055591;28;20025;-63
2022/04/24 00:57:33;;;;;;;8.98;5.50;;;14.60;46.80;;;;;;5058223;28;20028;-63
2022/04/24 00:59:59;;;;;;;9.05;5.60;;;14.60;46.90;;;;;;5055173;28;20112;-63
2022/04/24 01:02:25;;;;;;;10.48;5.53;;;14.60;47.00;;;;;;5053410;28;20422;-63
2022/04/24 01:04:51;;;;;;;8.43;5.90;;;14.60;47.10;;;;;;5058080;28;20033;-63
2022/04/24 01:07:17;;;;;;;8.60;5.75;;;14.60;47.30;;;;;;5050249;28;20465;-63
2022/04/24 01:09:42;;;;;;;8.00;5.28;;;14.50;47.30;;;;;;5044058;28;20033;-63
2022/04/24 01:12:08;;;;;;;8.75;6.07;;;14.50;47.40;;;;;;5047922;28;20028;-63
2022/04/24 01:14:35;;;;;;;8.45;5.55;;;14.50;47.50;;;;;;5056310;28;20053;-62
2022/04/24 01:17:02;;;;;;;8.48;5.35;;;14.50;47.60;;;;;;5049404;28;20070;-63
2022/04/24 01:19:28;;;;;;;10.35;5.90;;;14.50;47.70;;;;;;5046140;28;20466;-63
2022/04/24 01:21:55;;;;;;;8.30;6.00;;;14.50;47.90;;;;;;5044840;28;20028;-63
2022/04/24 01:24:22;;;;;;;9.07;6.03;;;14.40;48.00;;;;;;5057809;28;20412;-63
2022/04/24 01:26:49;;;;;;;8.63;5.68;;;14.40;48.20;;;;;;5055652;28;20039;-63
2022/04/24 01:29:16;;;;;;;9.63;5.63;;;14.40;48.40;;;;;;5048014;28;20033;-63
2022/04/24 01:31:44;;;;;;;9.52;6.32;;;14.30;48.50;;;;;;5046625;28;20033;-63
2022/04/24 01:34:10;;;;;;;9.13;5.75;;;14.30;48.60;;;;;;5057313;28;20052;-63
2022/04/24 01:36:36;;;;;;;10.88;6.70;;;14.40;48.70;;;;;;5056193;28;20048;-63
2022/04/24 01:39:03;;;;;;;10.38;6.95;;;14.30;48.80;;;;;;5049334;28;20470;-63
2022/04/24 01:41:28;;;;;;;10.10;6.32;;;14.30;48.90;;;;;;5050337;28;20110;-62
2022/04/24 01:43:54;;;;;;;11.00;6.07;;;14.30;49.10;;;;;;5051071;28;20056;-63
2022/04/24 01:46:19;;;;;;;10.52;6.03;;;14.30;49.10;;;;;;5052258;28;20056;-63
2022/04/24 01:48:45;;;;;;;10.02;6.55;;;14.30;49.30;;;;;;5051453;28;20044;-63
2022/04/24 01:51:12;;;;;;;12.13;6.28;;;14.20;49.30;;;;;;5037260;28;20049;-63
2022/04/24 01:53:38;;;;;;;11.27;6.32;;;14.30;49.50;;;;;;5045092;28;20021;-63
2022/04/24 01:56:06;;;;;;;9.30;6.03;;;14.20;49.50;;;;;;5055165;28;20021;-63
2022/04/24 01:58:32;;;;;;;9.55;6.10;;;14.20;49.80;;;;;;5049417;28;20032;-63
2022/04/24 02:00:58;;;;;;;9.07;6.78;;;14.10;49.90;;;;;;5051553;28;20033;-63
2022/04/24 02:03:26;;;;;;;9.32;5.80;;;14.10;50.00;;;;;;5055777;28;20028;-63
2022/04/24 02:05:52;;;;;;;11.15;6.28;;;14.10;50.20;;;;;;5056123;28;20023;-63
2022/04/24 02:08:17;;;;;;;10.13;6.60;;;14.10;50.30;;;;;;5048018;28;20108;-63
2022/04/24 02:10:43;;;;;;;10.27;6.60;;;14.10;50.50;;;;;;5041239;28;20112;-63
2022/04/24 02:13:09;;;;;;;10.10;6.70;;;14.00;50.70;;;;;;5049657;28;20125;-63
2022/04/24 02:15:35;;;;;;;9.45;6.18;;;14.00;50.80;;;;;;5056986;28;20402;-63
2022/04/24 02:18:01;;;;;;;10.55;6.35;;;14.00;50.90;;;;;;5048952;28;20029;-63
2022/04/24 02:20:30;;;;;;;9.63;6.60;;;14.00;51.10;;;;;;5038013;28;20025;-63
2022/04/24 02:22:57;;;;;;;12.55;6.40;;;13.90;51.20;;;;;;5043081;28;20032;-63
2022/04/24 02:25:24;;;;;;;10.77;6.40;;;13.90;51.40;;;;;;5056779;28;20493;-63
2022/04/24 02:27:53;;;;;;;9.90;6.43;;;13.90;52.10;;;;;;5049790;28;20063;-62
2022/04/24 02:30:20;;;;;;;9.05;6.10;;;13.90;51.70;;;;;;5039168;28;20370;-63
2022/04/24 02:32:46;;;;;;;9.88;6.32;;;13.80;51.80;;;;;;5046290;28;20147;-63
2022/04/24 02:35:12;;;;;;;9.18;6.22;;;13.80;51.90;;;;;;5038855;28;20040;-63
2022/04/24 02:37:38;;;;;;;9.75;6.55;;;13.80;52.10;;;;;;5053550;28;20025;-63
2022/04/24 02:40:04;;;;;;;10.00;6.35;;;13.70;52.20;;;;;;5041359;28;20030;-63
2022/04/24 02:42:30;;;;;;;10.57;6.38;;;13.70;52.30;;;;;;5042614;28;20029;-62
2022/04/24 02:44:55;;;;;;;10.25;6.22;;;13.70;52.40;;;;;;5056215;28;20028;-62
2022/04/24 02:47:21;;;;;;;10.63;6.38;;;13.60;52.50;;;;;;5049406;28;20116;-63
2022/04/24 02:49:46;;;;;;;11.50;6.32;;;13.60;52.60;;;;;;5042478;28;20084;-63
2022/04/24 02:52:12;;;;;;;10.40;6.95;;;13.60;52.70;;;;;;5038776;28;20082;-62
2022/04/24 02:54:39;;;;;;;10.73;6.35;;;13.60;52.80;;;;;;5055957;28;20106;-63
2022/04/24 02:57:05;;;;;;;9.85;6.45;;;13.50;52.80;;;;;;5053956;28;20040;-63
2022/04/24 02:59:32;;;;;;;9.88;5.97;;;13.60;52.90;;;;;;5053530;28;20029;-63
2022/04/24 03:01:57;;;;;;;10.27;6.40;;;13.50;52.90;;;;;;5053850;28;20365;-62
2022/04/24 03:04:23;;;;;;;9.98;6.07;;;13.50;53.00;;;;;;5052440;28;20033;-63
2022/04/24 03:06:49;;;;;;;10.35;6.35;;;13.50;53.10;;;;;;5055117;28;20043;-63
2022/04/24 03:09:15;;;;;;;10.30;6.53;;;13.50;53.10;;;;;;5054273;28;20055;-62
2022/04/24 03:11:40;;;;;;;9.73;6.18;;;13.40;53.10;;;;;;5057282;28;20056;-63
2022/04/24 03:14:06;;;;;;;8.68;5.28;;;13.40;53.20;;;;;;5057042;28;20047;-63
2022/04/24 03:16:31;;;;;;;8.50;5.78;;;13.40;53.30;;;;;;5052899;28;20025;-62
2022/04/24 03:18:57;;;;;;;10.40;6.43;;;13.40;53.40;;;;;;5054247;28;20029;-63
2022/04/24 03:21:22;;;;;;;9.23;5.70;;;13.40;53.40;;;;;;5034106;28;20037;-63
2022/04/24 03:23:48;;;;;;;9.07;5.85;;;13.30;53.40;;;;;;5039690;28;20029;-63
2022/04/24 03:26:14;;;;;;;9.88;5.75;;;13.40;53.50;;;;;;5034281;28;20489;-63
2022/04/24 03:28:43;;;;;;;10.98;6.07;;;13.30;53.40;;;;;;5036448;28;20424;-62
2022/04/24 03:31:09;;;;;;;9.63;6.03;;;13.30;53.50;;;;;;5041199;28;20030;-62
2022/04/24 03:33:35;;;;;;;9.18;5.47;;;13.30;53.60;;;;;;5040002;28;20037;-62
2022/04/24 03:36:00;;;;;;;10.00;5.90;;;13.30;53.60;;;;;;5044219;28;20061;-63
2022/04/24 03:38:26;;;;;;;10.93;6.38;;;13.20;53.50;;;;;;5035656;28;20397;-63
2022/04/24 03:40:52;;;;;;;10.48;6.18;;;13.20;53.60;;;;;;5038990;28;20025;-63
2022/04/24 03:43:17;;;;;;;12.18;6.10;;;13.20;53.70;;;;;;5052317;28;20036;-63
2022/04/24 03:45:43;;;;;;;8.55;5.35;;;13.20;53.70;;;;;;5054666;28;20361;-62
2022/04/24 03:48:08;;;;;;;9.52;5.38;;;13.20;53.70;;;;;;5048413;28;20048;-63
2022/04/24 03:50:34;;;;;;;10.23;6.10;;;13.20;53.70;;;;;;5050499;28;20029;-63
2022/04/24 03:53:00;;;;;;;8.48;5.43;;;13.10;53.70;;;;;;5053887;28;20036;-63
2022/04/24 03:55:25;;;;;;;8.95;5.68;;;13.10;53.70;;;;;;5054801;28;20044;-63
2022/04/24 03:57:51;;;;;;;11.95;5.78;;;13.10;53.70;;;;;;5053058;28;20025;-63
2022/04/24 04:00:17;;;;;;;9.45;5.88;;;13.10;53.80;;;;;;5055060;28;20458;-62
2022/04/24 04:02:47;;;;;;;9.50;6.03;;;13.10;53.80;;;;;;5052301;28;20060;-62
2022/04/24 04:05:13;;;;;;;8.82;5.68;;;13.00;53.80;;;;;;5054957;28;20021;-63
2022/04/24 04:07:39;;;;;;;9.82;5.57;;;13.00;53.80;;;;;;5049688;28;20024;-63
2022/04/24 04:10:06;;;;;;;8.95;5.18;;;13.00;53.80;;;;;;5053859;28;20090;-63
2022/04/24 04:12:33;;;;;;;8.40;5.03;;;13.00;53.90;;;;;;5049487;28;20082;-63
2022/04/24 04:15:05;;;;;;;8.50;5.40;;;12.90;53.90;;;;;;5054376;28;20438;-63
2022/04/24 04:17:32;;;;;;;8.60;5.43;;;13.00;54.00;;;;;;5046223;28;20453;-62
2022/04/24 04:19:59;;;;;;;8.02;4.95;;;12.90;54.00;;;;;;5039398;28;20469;-62
2022/04/24 04:22:25;;;;;;;8.38;5.15;;;12.90;54.00;;;;;;5047886;28;20033;-63
2022/04/24 04:24:51;;;;;;;9.45;5.57;;;12.90;54.10;;;;;;5054319;28;20104;-62
2022/04/24 04:27:17;;;;;;;8.30;5.40;;;12.80;54.10;;;;;;5047308;28;20398;-62
2022/04/24 04:29:43;;;;;;;9.05;5.63;;;12.90;54.10;;;;;;5051811;28;20068;-63
2022/04/24 04:32:09;;;;;;;10.35;5.60;;;12.80;54.10;;;;;;5053451;28;20438;-63
2022/04/24 04:34:34;;;;;;;9.55;5.75;;;12.80;54.20;;;;;;5053419;28;20036;-62
2022/04/24 04:37:00;;;;;;;8.43;5.15;;;12.80;54.20;;;;;;5053310;28;20021;-62
2022/04/24 04:39:26;;;;;;;9.73;5.30;;;12.80;54.20;;;;;;5051936;28;20074;-62
2022/04/24 04:41:51;;;;;;;10.05;5.32;;;12.70;54.20;;;;;;5053769;28;20048;-63
2022/04/24 04:44:17;;;;;;;9.55;6.20;;;12.70;54.20;;;;;;5052851;28;20033;-63
2022/04/24 04:46:43;;;;;;;8.70;5.20;;;12.70;54.30;;;;;;5054875;28;20394;-63
2022/04/24 04:49:09;;;;;;;7.70;4.57;;;12.70;54.20;;;;;;5053334;28;20119;-63
2022/04/24 04:51:35;;;;;;;8.90;5.68;;;12.70;54.20;;;;;;5053422;28;20373;-62
2022/04/24 04:54:01;;;;;;;9.38;5.55;;;12.70;54.20;;;;;;5052055;28;20071;-62
2022/04/24 04:56:26;;;;;;;8.65;5.47;;;12.70;54.20;;;;;;5051315;28;20068;-62
2022/04/24 04:58:52;;;;;;;8.82;5.40;;;12.60;54.10;;;;;;5053562;28;20025;-63
2022/04/24 05:01:18;;;;;;;10.60;5.13;;;12.60;54.20;;;;;;5051902;28;20041;-62
2022/04/24 05:03:43;;;;;;;8.38;4.88;;;12.60;54.30;;;;;;5041075;28;20088;-62
2022/04/24 05:06:09;;;;;;;8.20;5.13;;;12.60;54.20;;;;;;5053650;28;20033;-62
2022/04/24 05:08:35;;;;;;;8.90;5.25;;;12.60;54.20;;;;;;5052753;28;20032;-62
2022/04/24 05:11:01;;;;;;;7.78;4.75;;;12.60;54.20;;;;;;5053016;28;20350;-62
2022/04/24 05:13:27;;;;;;;8.35;5.30;;;12.60;54.10;;;;;;5052393;28;20028;-62
2022/04/24 05:15:54;;;;;;;8.48;5.07;;;12.60;54.00;;;;;;5040638;28;20021;-63
2022/04/24 05:18:19;;;;;;;8.75;5.38;;;12.60;54.00;;;;;;5036352;28;20027;-63
2022/04/24 05:20:45;;;;;;;7.00;4.30;;;12.60;53.90;;;;;;5034261;28;20117;-63
2022/04/24 05:23:11;;;;;;;8.70;5.07;;;12.70;53.90;;;;;;5042685;28;20323;-62
2022/04/24 05:25:37;;;;;;;8.57;4.65;;;12.70;53.90;;;;;;5041923;28;20040;-63
2022/04/24 05:28:04;;;;;;;8.50;4.95;;;12.70;53.80;;;;;;5033328;28;20043;-62
2022/04/24 05:30:30;;;;;;;8.07;4.80;;;12.70;53.80;;;;;;5044007;28;20060;-63
2022/04/24 05:32:56;;;;;;;7.57;4.38;;;12.90;53.70;;;;;;5044297;28;20379;-63
2022/04/24 05:35:22;;;;;;;8.30;5.10;;;13.20;53.40;;;;;;5043069;28;20025;-64
2022/04/24 05:37:49;;;;;;;8.73;5.13;;;13.70;52.70;;;;;;5048372;28;20091;-64
2022/04/24 05:40:15;;;;;;;8.48;4.80;;;14.10;51.90;;;;;;5055763;28;20021;-63
2022/04/24 05:42:55;;;;;;;7.47;4.75;;;14.50;51.30;;;;;;5050270;28;20029;-64
2022/04/24 05:45:22;;;;;;;8.18;5.00;;;15.10;50.20;;;;;;5037349;28;20443;-63
2022/04/24 05:47:53;;;;;;;10.32;4.97;;;15.40;49.50;;;;;;5039180;28;20029;-63
2022/04/24 05:50:20;;;;;;;7.38;4.38;;;15.80;49.00;;;;;;5055616;28;20041;-64
2022/04/24 05:52:45;;;;;;;8.05;4.22;;;16.40;48.00;;;;;;5050808;28;20424;-63
2022/04/24 05:55:12;;;;;;;6.95;4.07;;;17.20;46.80;;;;;;5037002;28;20029;-64
2022/04/24 05:57:37;;;;;;;7.60;4.50;;;17.40;46.10;;;;;;5040832;28;20021;-65
2022/04/24 06:00:05;;;;;;;7.82;3.85;;;17.60;45.80;;;;;;5057742;28;20453;-64
2022/04/24 06:02:37;;;;;;;7.15;4.38;;;18.00;45.00;;;;;;5055274;28;20033;-65
2022/04/24 06:05:03;;;;;;;7.70;4.22;;;18.50;44.20;;;;;;5056868;28;20033;-64
2022/04/24 06:07:29;;;;;;;7.63;3.55;;;18.90;43.40;;;;;;5051614;28;20033;-64
2022/04/24 06:09:54;;;;;;;8.00;4.32;;;19.30;42.60;;;;;;5056979;28;20095;-64
2022/04/24 06:12:20;;;;;;;7.28;4.30;;;19.50;42.10;;;;;;5055501;28;20103;-64
2022/04/24 06:14:46;;;;;;;7.25;4.15;;;19.30;42.10;;;;;;5043576;28;20036;-64
2022/04/24 06:17:11;;;;;;;8.55;4.43;;;19.00;42.50;;;;;;5041497;28;20098;-64
2022/04/24 06:19:37;;;;;;;7.88;3.78;;;18.70;43.00;;;;;;5055185;28;20057;-64
2022/04/24 06:22:03;;;;;;;7.88;4.13;;;18.40;43.40;;;;;;5057419;28;20074;-64
2022/04/24 06:24:29;;;;;;;7.90;4.03;;;18.10;43.60;;;;;;5051960;28;20029;-64
2022/04/24 06:26:55;;;;;;;9.00;4.10;;;17.80;43.80;;;;;;5036314;28;20045;-65
2022/04/24 06:29:20;;;;;;;7.25;4.22;;;17.60;44.00;;;;;;5038109;28;20109;-64
2022/04/24 06:31:46;;;;;;;7.03;4.03;;;17.40;44.10;;;;;;5037316;28;20091;-64
2022/04/24 06:34:11;;;;;;;9.23;3.95;;;17.30;44.20;;;;;;5036492;28;20057;-65
2022/04/24 06:36:37;;;;;;;7.45;4.10;;;17.20;44.20;;;;;;5037102;28;20143;-64
2022/04/24 06:39:03;;;;;;;7.03;3.85;;;17.20;44.20;;;;;;5038009;28;20044;-63
2022/04/24 06:41:29;;;;;;;7.65;4.07;;;17.20;44.10;;;;;;5040047;28;20040;-64
2022/04/24 06:43:55;;;;;;;7.47;4.00;;;17.20;44.30;;;;;;5045392;28;20107;-65
2022/04/24 06:46:21;;;;;;;7.63;4.57;;;17.20;44.00;;;;;;5048143;28;20484;-64
2022/04/24 06:48:46;;;;;;;6.90;3.58;;;17.30;43.90;;;;;;5053676;28;20107;-63
2022/04/24 06:51:12;;;;;;;8.93;4.03;;;17.40;43.80;;;;;;5045891;28;20065;-63
2022/04/24 06:53:39;;;;;;;6.28;3.75;;;17.40;43.50;;;;;;5039490;28;20041;-63
2022/04/24 06:56:05;;;;;;;6.90;3.83;;;17.60;43.40;;;;;;5042408;28;20045;-63
2022/04/24 06:58:31;;;;;;;9.10;4.20;;;17.70;43.30;;;;;;5036936;28;20032;-63
2022/04/24 07:00:56;;;;;;;7.35;3.70;;;17.80;43.20;;;;;;5037055;28;20040;-63
2022/04/24 07:03:23;;;;;;;7.05;3.67;;;18.00;43.10;;;;;;5035945;28;20044;-63
2022/04/24 07:05:56;;;;;;;8.18;3.85;;;18.00;42.80;;;;;;5041440;28;20037;-63
2022/04/24 07:08:24;;;;;;;8.43;3.55;;;18.10;42.60;;;;;;5037022;28;20523;-63
2022/04/24 07:10:50;;;;;;;7.72;4.15;;;18.20;42.60;;;;;;5040031;28;20371;-63
2022/04/24 07:13:16;;;;;;;7.78;4.30;;;18.30;42.50;;;;;;5035692;28;20131;-64
2022/04/24 07:15:41;;;;;;;7.13;3.58;;;18.40;42.30;;;;;;5035470;28;20115;-63
2022/04/24 07:18:08;;;;;;;6.88;3.90;;;18.40;42.20;;;;;;5037380;28;20392;-63
2022/04/24 07:20:34;;;;;;;7.40;4.32;;;18.50;42.00;;;;;;5034148;28;20025;-64
2022/04/24 07:23:01;;;;;;;7.93;4.65;;;18.60;41.90;;;;;;5038791;28;20124;-64
2022/04/24 07:25:31;;;;;;;8.43;3.85;;;18.60;41.80;;;;;;5052962;28;20037;-65
2022/04/24 07:27:57;;;;;;;8.35;4.22;;;18.70;41.70;;;;;;5049918;28;20331;-64
2022/04/24 07:30:23;;;;;;;7.13;3.90;;;18.70;41.60;;;;;;5038639;28;20167;-64
2022/04/24 07:32:51;;;;;;;6.72;4.05;;;18.80;41.50;;;;;;5054644;28;20037;-65
2022/04/24 07:35:22;;;;;;;7.50;4.20;;;19.00;41.40;;;;;;5053639;28;20084;-64
2022/04/24 07:37:48;;;;;;;7.65;4.03;;;19.10;41.20;;;;;;5036865;28;20029;-65
2022/04/24 07:40:16;;;;;;;6.65;4.13;;;19.20;41.10;;;;;;5035671;28;20419;-65
2022/04/24 07:42:46;;;;;;;7.25;3.78;;;19.30;40.90;;;;;;5035484;28;20033;-65
2022/04/24 07:45:17;;;;;;;7.93;4.38;;;19.40;40.70;;;;;;5049063;28;20376;-64
2022/04/24 07:47:45;;;;;;;7.40;4.07;;;19.60;41.20;;;;;;5056036;28;20420;-65
2022/04/24 07:50:10;;;;;;;8.43;4.57;;;19.70;40.50;;;;;;5041647;28;20033;-66
2022/04/24 07:52:36;;;;;;;8.05;4.40;;;19.70;40.20;;;;;;5038739;28;20335;-66
2022/04/24 07:55:02;;;;;;;8.05;4.22;;;19.80;40.10;;;;;;5042892;28;20413;-65
2022/04/24 07:57:27;;;;;;;8.05;4.50;;;19.90;40.00;;;;;;5035968;28;20029;-65
2022/04/24 07:59:53;;;;;;;7.47;4.10;;;20.00;40.00;;;;;;5042289;28;20029;-65
2022/04/24 08:02:18;;;;;;;6.93;3.97;;;20.20;39.80;;;;;;5042197;28;20086;-65
2022/04/24 08:04:44;;;;;;;8.00;4.10;;;20.30;39.60;;;;;;5034455;28;20131;-65
2022/04/24 08:07:10;;;;;;;7.75;4.15;;;20.50;39.40;;;;;;5037180;28;20033;-65
2022/04/24 08:09:35;;;;;;;7.57;3.50;;;20.50;39.20;;;;;;5037930;28;20089;-66
2022/04/24 08:12:01;;;;;;;7.80;4.13;;;20.60;39.10;;;;;;5033055;28;20033;-65
2022/04/24 08:14:26;;;;;;;6.82;3.97;;;20.70;39.00;;;;;;5035414;28;20033;-65
2022/04/24 08:16:52;;;;;;;7.60;4.15;;;20.70;38.90;;;;;;5046528;28;20483;-66
2022/04/24 08:19:18;;;;;;;7.28;4.32;;;20.90;38.80;;;;;;5053224;28;20461;-66
2022/04/24 08:21:44;;;;;;;7.85;3.75;;;21.00;38.60;;;;;;5055230;28;20047;-65
2022/04/24 08:24:10;;;;;;;7.38;3.75;;;21.10;38.60;;;;;;5044436;28;20029;-65
2022/04/24 08:26:36;;;;;;;8.05;4.55;;;21.10;38.40;;;;;;5045345;28;20037;-64
2022/04/24 08:29:01;;;;;;;7.25;4.28;;;21.20;38.30;;;;;;5046425;28;20047;-64
2022/04/24 08:31:27;;;;;;;6.25;3.47;;;21.30;38.40;;;;;;5054578;28;20036;-65
2022/04/24 08:33:57;;;;;;;6.78;4.00;;;21.40;38.20;;;;;;5050609;28;20049;-65
2022/04/24 08:36:23;;;;;;;7.50;4.20;;;21.50;38.20;;;;;;5054707;28;20104;-64
2022/04/24 08:38:49;;;;;;;7.50;4.18;;;21.60;38.10;;;;;;5052308;28;20029;-64
2022/04/24 08:41:20;;;;;;;7.43;4.38;;;21.60;37.90;;;;;;5058919;28;20086;-64
2022/04/24 08:43:45;;;;;;;7.07;4.28;;;21.70;37.80;;;;;;5055964;28;20083;-65
2022/04/24 08:46:11;;;;;;;6.85;3.97;;;21.80;37.60;;;;;;5058461;28;20017;-65
2022/04/24 08:48:38;;;;;;;8.20;4.35;;;21.80;37.60;;;;;;5062392;28;20481;-64
2022/04/24 08:51:05;;;;;;;7.78;3.75;;;21.80;37.40;;;;;;5054504;28;20178;-64
2022/04/24 08:53:32;;;;;;;8.18;3.53;;;21.80;37.40;;;;;;5051104;28;20025;-64
2022/04/24 08:55:57;;;;;;;7.22;3.88;;;21.90;37.30;;;;;;5047581;28;20037;-64
2022/04/24 08:58:23;;;;;;;7.60;3.92;;;22.00;37.40;;;;;;5039041;28;20315;-64
2022/04/24 09:00:49;;;;;;;6.50;3.80;;;22.00;37.30;;;;;;5033891;28;20065;-64
2022/04/24 09:03:14;;;;;;;8.02;4.50;;;22.20;37.40;;;;;;5037530;28;20033;-64
2022/04/24 09:05:40;;;;;;;6.68;3.63;;;22.20;37.10;;;;;;5061571;28;20346;-64
2022/04/24 09:08:11;;;;;;;8.48;4.43;;;22.20;37.00;;;;;;5037149;28;20040;-64
2022/04/24 09:10:56;;;;;;;7.50;4.65;;;22.30;37.00;;;;;;5046726;28;20112;-64
2022/04/24 09:16:19;;;;;;;6.97;4.18;;;22.30;36.90;;;;;;5055695;28;20043;-64
2022/04/24 09:18:46;;;;;;;7.15;3.97;;;22.30;36.90;;;;;;5053402;28;20060;-64
2022/04/24 09:21:13;;;;;;;8.13;4.28;;;22.40;36.90;;;;;;5038308;28;20098;-64
2022/04/24 09:23:42;;;;;;;7.82;4.30;;;22.50;36.90;;;;;;5041522;28;20022;-64
2022/04/24 09:26:15;;;;;;;7.30;4.13;;;22.60;36.70;;;;;;5048796;28;20029;-64
2022/04/24 09:28:42;;;;;;;7.82;4.38;;;22.70;36.40;;;;;;5049056;28;20438;-64
2022/04/24 09:31:08;;;;;;;7.60;3.95;;;22.80;36.40;;;;;;5038196;28;20487;-64
2022/04/24 09:33:36;;;;;;;8.80;4.35;;;22.80;36.40;;;;;;5037381;28;20150;-64
2022/04/24 09:36:02;;;;;;;7.30;4.13;;;22.90;36.30;;;;;;5036981;28;20462;-64
2022/04/24 09:38:27;;;;;;;7.03;3.90;;;23.00;36.10;;;;;;5038661;28;20104;-64
2022/04/24 09:40:53;;;;;;;7.00;4.15;;;23.00;36.00;;;;;;5047536;28;20108;-64
2022/04/24 09:43:20;;;;;;;7.45;4.38;;;23.10;36.00;;;;;;5051320;28;20037;-63
2022/04/24 09:45:51;;;;;;;6.50;4.13;;;23.10;35.80;;;;;;5037525;28;20033;-64
2022/04/24 09:48:19;;;;;;;7.10;4.28;;;23.10;35.70;;;;;;5036928;28;20032;-64
2022/04/24 09:50:46;;;;;;;7.25;4.13;;;23.10;35.60;;;;;;5038585;28;20052;-64
2022/04/24 09:53:13;;;;;;;7.28;4.57;;;23.20;35.50;;;;;;5037969;28;20474;-64
2022/04/24 09:55:43;;;;;;;8.05;4.60;;;23.20;35.30;;;;;;5052465;28;20083;-64
2022/04/24 09:58:13;;;;;;;7.13;4.40;;;23.20;35.10;;;;;;5054611;28;20077;-64
2022/04/24 10:00:40;;;;;;;7.18;4.63;;;23.20;35.10;;;;;;5039990;28;20112;-64
2022/04/24 10:03:12;;;;;;;6.55;3.65;;;23.20;35.20;;;;;;5052145;28;20021;-64
2022/04/24 10:05:42;;;;;;;8.20;3.90;;;23.30;35.20;;;;;;5056835;28;20358;-66
2022/04/24 10:08:08;;;;;;;7.38;3.90;;;23.40;35.20;;;;;;5057761;28;20029;-64
2022/04/24 10:10:34;;;;;;;7.72;4.18;;;23.40;35.20;;;;;;5057126;28;20491;-64
2022/04/24 10:13:01;;;;;;;7.85;4.15;;;23.50;35.30;;;;;;5057222;28;20041;-64
2022/04/24 10:15:29;;;;;;;6.65;4.00;;;23.50;35.10;;;;;;5056940;28;20029;-64
2022/04/24 10:18:08;;;;;;;6.80;3.72;;;23.50;34.80;;;;;;5051534;28;20128;-64
2022/04/24 10:20:48;;;;;;;8.00;4.18;;;23.50;34.70;;;;;;5036281;28;20029;-64
2022/04/24 10:23:14;;;;;;;8.50;4.15;;;23.60;34.70;;;;;;5050703;28;20094;-65
2022/04/24 10:25:41;;;;;;;6.45;3.88;;;23.70;34.60;;;;;;5038765;28;20037;-64
2022/04/24 10:28:16;;;;;;;7.95;3.92;;;23.60;34.30;;;;;;5056689;28;20386;-64
2022/04/24 10:30:44;;;;;;;6.50;3.60;;;23.60;34.30;;;;;;5053115;28;20453;-64
2022/04/24 10:33:37;;;;;;;7.07;4.13;;;23.70;34.30;;;;;;5054026;28;20415;-64
2022/04/24 10:36:11;;;;;;;5.85;3.45;;;23.80;34.10;;;;;;5037016;28;20069;-65
2022/04/24 10:38:57;;;;;;;6.85;3.58;;;23.80;34.20;;;;;;5051834;28;20033;-64
2022/04/24 10:41:24;;;;;;;7.30;4.00;;;23.80;34.00;;;;;;5054402;28;20108;-65
2022/04/24 10:43:58;;;;;;;7.13;3.50;;;23.70;34.20;;;;;;5051066;28;20033;-64
2022/04/24 10:46:33;;;;;;;6.55;3.50;;;23.80;34.10;;;;;;5046908;28;20037;-65
2022/04/24 10:49:10;;;;;;;7.43;3.65;;;23.70;34.10;;;;;;5037120;28;20076;-65
2022/04/24 10:51:37;;;;;;;6.97;3.92;;;23.70;34.00;;;;;;5040405;28;20599;-64
2022/04/24 10:54:11;;;;;;;7.13;3.30;;;23.70;34.10;;;;;;5055989;28;20345;-65
2022/04/24 10:56:38;;;;;;;5.93;3.35;;;23.80;34.10;;;;;;5055098;28;20029;-65
2022/04/24 10:59:15;;;;;;;7.95;3.50;;;23.70;34.00;;;;;;5054797;28;20060;-65
2022/04/24 11:01:44;;;;;;;7.25;3.72;;;23.70;33.90;;;;;;5041233;28;20021;-65
2022/04/24 11:04:11;;;;;;;9.27;3.22;;;23.70;33.80;;;;;;5054581;28;20084;-65
2022/04/24 11:06:37;;;;;;;6.70;3.45;;;23.60;33.70;;;;;;5050919;28;20063;-65
2022/04/24 11:09:13;;;;;;;8.43;3.85;;;23.60;33.80;;;;;;5055023;28;20033;-65
2022/04/24 11:11:46;;;;;;;7.20;3.50;;;23.60;34.20;;;;;;5056088;28;20080;-65
2022/04/24 11:14:12;;;;;;;6.40;3.40;;;23.60;33.70;;;;;;5055525;28;20028;-64
2022/04/24 11:16:37;;;;;;;6.75;3.15;;;23.60;33.90;;;;;;5047940;28;20393;-65
2022/04/24 11:19:03;;;;;;;6.80;3.47;;;23.60;33.90;;;;;;5056094;28;20033;-65
2022/04/24 11:21:28;;;;;;;7.53;3.70;;;23.60;33.80;;;;;;5055141;28;20362;-65
2022/04/24 11:24:01;;;;;;;6.25;3.55;;;23.60;33.80;;;;;;5055967;28;20442;-65
2022/04/24 11:26:26;;;;;;;6.25;3.55;;;23.60;33.80;;;;;;5055674;28;20430;-65
2022/04/24 11:28:52;;;;;;;7.00;3.90;;;23.70;33.90;;;;;;5056322;28;20119;-65
2022/04/24 11:31:20;;;;;;;7.38;3.00;;;23.70;33.70;;;;;;5056346;28;20037;-65
2022/04/24 11:33:56;;;;;;;7.20;4.07;;;23.80;33.60;;;;;;5055772;28;20041;-65
2022/04/24 11:36:24;;;;;;;6.10;3.50;;;23.80;33.40;;;;;;5055799;28;20032;-65
2022/04/24 11:38:51;;;;;;;6.63;3.47;;;23.70;33.60;;;;;;5055945;28;20074;-65
2022/04/24 11:41:18;;;;;;;6.75;3.90;;;23.60;33.70;;;;;;5055903;28;20040;-65
2022/04/24 11:43:44;;;;;;;5.65;3.33;;;23.60;33.90;;;;;;5056037;28;20136;-65
2022/04/24 11:51:39;;;;;;;6.55;3.50;;;23.10;33.80;;;;;;5055467;28;20044;-65
2022/04/24 11:54:15;;;;;;;6.63;3.05;;;23.00;33.90;;;;;;5055455;28;20025;-65
2022/04/24 11:56:40;;;;;;;7.97;3.15;;;22.80;33.90;;;;;;5054124;28;20038;-65
2022/04/24 11:59:15;;;;;;;6.95;3.08;;;22.70;34.10;;;;;;5055563;28;20029;-65
2022/04/24 12:01:43;;;;;;;7.82;3.58;;;22.80;34.20;;;;;;5055148;28;20063;-65
2022/04/24 12:04:16;;;;;;;5.88;3.05;;;22.90;34.10;;;;;;5054568;28;20417;-65
2022/04/24 12:06:42;;;;;;;7.90;3.30;;;22.90;34.10;;;;;;5054256;28;20044;-65
2022/04/24 12:09:08;;;;;;;8.88;3.53;;;23.00;34.10;;;;;;5054587;28;20052;-65
2022/04/24 12:11:35;;;;;;;9.32;4.22;;;22.90;34.00;;;;;;5055590;28;20040;-65
2022/04/24 12:14:10;;;;;;;5.80;3.30;;;22.70;34.10;;;;;;5053623;28;20036;-65
2022/04/24 12:16:40;;;;;;;7.25;3.17;;;22.60;34.30;;;;;;5054770;28;20043;-65
2022/04/24 12:19:08;;;;;;;6.05;3.30;;;22.50;34.00;;;;;;5055605;28;20395;-65
2022/04/24 12:21:48;;;;;;;7.85;3.42;;;22.20;33.70;;;;;;5055520;28;20024;-65
2022/04/24 12:24:14;;;;;;;6.43;3.67;;;22.00;34.00;;;;;;5055217;28;20033;-65
2022/04/24 12:26:53;;;;;;;6.53;3.78;;;21.90;34.40;;;;;;5054782;28;20043;-65
2022/04/24 12:29:20;;;;;;;6.68;3.25;;;21.90;34.80;;;;;;5054653;28;20422;-65
2022/04/24 12:31:47;;;;;;;6.35;3.65;;;21.80;35.00;;;;;;5055044;28;20044;-65
2022/04/24 12:34:13;;;;;;;7.05;3.50;;;21.70;35.10;;;;;;5055463;28;20128;-65
2022/04/24 12:36:52;;;;;;;7.30;3.53;;;21.50;35.20;;;;;;5055432;28;20037;-65
2022/04/24 12:39:26;;;;;;;7.03;3.90;;;21.40;35.30;;;;;;5055217;28;20040;-65
2022/04/24 12:41:52;;;;;;;6.53;3.28;;;21.30;35.00;;;;;;5055181;28;20033;-65
2022/04/24 12:44:18;;;;;;;6.63;3.25;;;21.20;35.10;;;;;;5053281;28;20111;-65
2022/04/24 12:46:43;;;;;;;7.10;3.28;;;21.20;35.20;;;;;;5054260;28;20171;-65
2022/04/24 12:49:09;;;;;;;6.70;3.40;;;21.10;35.10;;;;;;5054670;28;20147;-65
2022/04/24 12:51:35;;;;;;;6.10;3.15;;;21.10;34.90;;;;;;5054405;28;20043;-65
2022/04/24 12:54:03;;;;;;;6.57;3.42;;;21.00;34.80;;;;;;5054550;28;20033;-65